createdAt,value
2022-12-27T00:08:02.223Z,98760
2022-12-27T00:20:08.484Z,98770
2022-12-27T00:32:02.231Z,98770
2022-12-27T00:44:02.213Z,98780
2022-12-27T00:56:02.219Z,98780
2022-12-27T01:08:02.156Z,98800
2022-12-27T01:20:02.107Z,98790
2022-12-27T01:32:02.239Z,98810
2022-12-27T01:44:02.154Z,98820
2022-12-27T01:56:02.216Z,98820
2022-12-27T02:08:02.107Z,98820
2022-12-27T02:20:02.114Z,98820
2022-12-27T02:32:02.098Z,98830
2022-12-27T02:44:02.104Z,98840
2022-12-27T02:56:02.226Z,98840
2022-12-27T03:08:02.115Z,98850
2022-12-27T03:20:02.211Z,98840
2022-12-27T03:32:02.187Z,98850
2022-12-27T03:44:02.118Z,98870
2022-12-27T03:56:02.221Z,98880
2022-12-27T04:08:02.222Z,98880
2022-12-27T04:20:02.208Z,98900
2022-12-27T04:32:02.205Z,98880
2022-12-27T04:44:02.222Z,98870
2022-12-27T04:56:02.227Z,98870
2022-12-27T05:08:02.103Z,98870
2022-12-27T05:20:02.107Z,98890
2022-12-27T05:32:02.199Z,98910
2022-12-27T05:44:07.121Z,98900
2022-12-27T05:56:02.220Z,98900
2022-12-27T06:08:02.232Z,98910
2022-12-27T06:20:02.112Z,98920
2022-12-27T06:32:02.280Z,98940
2022-12-27T06:44:02.102Z,98930
2022-12-27T06:56:02.143Z,98940
2022-12-27T07:08:02.246Z,98950
2022-12-27T07:20:02.097Z,98960
2022-12-27T07:32:02.288Z,98990
2022-12-27T07:44:02.123Z,99010
2022-12-27T07:56:02.216Z,99040
2022-12-27T08:08:02.115Z,99020
2022-12-27T08:20:02.233Z,99010
2022-12-27T08:32:02.235Z,99020
2022-12-27T08:44:02.103Z,99020
2022-12-27T08:56:02.212Z,99040
2022-12-27T09:08:02.232Z,99050
2022-12-27T09:20:02.201Z,99070
2022-12-27T09:32:02.177Z,99070
2022-12-27T09:44:02.207Z,99090
2022-12-27T09:56:02.229Z,99070
2022-12-27T10:08:02.227Z,99090
2022-12-27T10:20:02.216Z,99060
2022-12-27T10:32:02.222Z,99090
2022-12-27T10:44:02.247Z,99070
2022-12-27T10:56:02.219Z,99090
2022-12-27T11:08:02.199Z,99090
2022-12-27T11:20:02.221Z,99090
2022-12-27T11:32:02.199Z,99090
2022-12-27T11:44:02.123Z,99090
2022-12-27T11:56:02.200Z,99100
2022-12-27T12:08:02.113Z,99100
2022-12-27T12:20:02.222Z,99110
2022-12-27T12:32:02.161Z,99080
2022-12-27T12:44:02.125Z,99080
2022-12-27T12:56:02.224Z,99030
2022-12-27T13:08:02.144Z,99070
2022-12-27T13:20:02.163Z,99070
2022-12-27T13:32:02.135Z,99070
2022-12-27T13:44:02.130Z,99040
2022-12-27T13:56:20.402Z,99030
2022-12-27T14:08:02.112Z,99020
2022-12-27T14:20:02.169Z,99010
2022-12-27T14:32:02.101Z,99020
2022-12-27T14:44:03.787Z,99010
2022-12-27T14:56:02.193Z,99020
2022-12-27T15:08:02.108Z,99010
2022-12-27T15:20:02.107Z,99010
2022-12-27T15:32:02.119Z,99000
2022-12-27T15:44:02.601Z,99000
2022-12-27T15:56:02.231Z,98980
2022-12-27T16:08:02.228Z,98980
2022-12-27T16:20:02.212Z,98960
2022-12-27T16:32:02.275Z,98960
2022-12-27T16:44:02.959Z,98950
2022-12-27T16:56:02.208Z,98960
2022-12-27T17:08:02.106Z,98960
2022-12-27T17:20:02.121Z,98950
2022-12-27T17:32:02.108Z,98940
2022-12-27T17:44:02.101Z,98920
2022-12-27T17:56:05.269Z,98920
2022-12-27T18:08:02.128Z,98930
2022-12-27T18:20:02.222Z,98910
2022-12-27T18:32:02.176Z,98890
2022-12-27T18:44:02.658Z,98880
2022-12-27T18:56:02.216Z,98880
2022-12-27T19:08:02.120Z,98850
2022-12-27T19:20:02.130Z,98840
2022-12-27T19:32:02.322Z,98820
2022-12-27T19:44:02.333Z,98810
2022-12-27T19:56:02.220Z,98800
2022-12-27T20:08:02.143Z,98780
2022-12-27T20:20:02.132Z,98760
2022-12-27T20:32:02.319Z,98770
2022-12-27T20:44:02.806Z,98760
2022-12-27T20:56:02.205Z,98760
2022-12-27T21:08:02.170Z,98760
2022-12-27T21:20:02.240Z,98740
2022-12-27T21:32:02.098Z,98720
2022-12-27T21:44:02.120Z,98720
2022-12-27T21:56:02.196Z,98710
2022-12-27T22:08:02.227Z,98710
2022-12-27T22:20:02.220Z,98710
2022-12-27T22:32:02.217Z,98680
2022-12-27T22:44:02.207Z,98660
2022-12-27T22:56:02.206Z,98630
2022-12-27T23:08:03.530Z,98640
2022-12-27T23:20:02.124Z,98640
2022-12-27T23:32:02.306Z,98610
2022-12-27T23:44:02.105Z,98590
2022-12-27T23:56:02.211Z,98550
